Saturday, December 16, 2017, 9:22 PM EST
Back to Local

KIPT, Williamsport-lycoming County

Location: Montoursville, PA, United States Lat: 41.25
Local Time: 9:22 PM EST ( 2:22 GMT) Lon: -76.917
Time Zone: US/Eastern Elev: 528 ft

Show me the last for .
Show Decoded

2017-12-16 20:54 METAR KIPT 170154Z 00000KT 10SM OVC027 03/M03 A3014 RMK AO2 SLP212 T00281028 =
2017-12-16 19:54 METAR KIPT 170054Z 01004KT 10SM OVC025 03/M02 A3013 RMK AO2 SLP211 T00281022 =
2017-12-16 19:26 METAR KIPT 170026Z 01005KT 10SM BKN028 OVC034 03/M02 A3012 RMK AO2 T00281022 =
2017-12-16 18:54 METAR KIPT 162354Z 28003KT 10SM OVC036 03/M02 A3010 RMK AO2 SLP200 T00331017
                 10044 20028 51035 =
2017-12-16 17:54 METAR KIPT 162254Z 00000KT 10SM OVC037 03/M02 A3007 RMK AO2 SLP188 T00331017 =
2017-12-16 16:54 METAR KIPT 162154Z 28005KT 10SM BKN040 OVC065 04/M02 A3004 RMK AO2 SLP178
                 T00391017 =
2017-12-16 15:54 METAR KIPT 162054Z 27007KT 10SM OVC043 04/M02 A3000 RMK AO2 SLP164 T00391022
                 53019 =
2017-12-16 14:54 METAR KIPT 161954Z 27010G17KT 10SM OVC038 04/M03 A2997 RMK AO2 SLP154 T00441028
                 =
2017-12-16 13:54 METAR KIPT 161854Z 26010KT 10SM OVC041 04/M03 A2994 RMK AO2 SLP146 T00441028 =
2017-12-16 12:54 METAR KIPT 161754Z COR 000/00 10SM OVC043 03/M03 A2994 RMK AO2 SLP145 T00331033
                 10033 21072 56021 =
2017-12-16 11:54 METAR KIPT 161654Z 13003KT 9SM OVC039 00/M04 A2996 RMK AO2 SLP153 T00001044 =
2017-12-16 10:54 METAR KIPT 161554Z 00000KT 7SM OVC035 M02/M05 A2998 RMK AO2 SLP160 T10171050 =
2017-12-16 09:54 METAR KIPT 161454Z 00000KT 8SM OVC034 M03/M07 A3000 RMK AO2 SLP168 T10331072
                 51014 =
2017-12-16 08:54 METAR KIPT 161354Z 00000KT 9SM OVC033 M04/M08 A3000 RMK AO2 SLP166 T10441078 =
2017-12-16 07:54 METAR KIPT 161254Z VRB03KT 8SM OVC037 M06/M09 A2998 RMK AO2 SLP161 T10611094 =
2017-12-16 06:54 METAR KIPT 161154Z 10004KT 9SM OVC037 M07/M11 A2996 RMK AO2 SLP154 I6000
                 T10721111 11072 21106 53001 =
2017-12-16 05:54 METAR KIPT 161054Z AUTO 00000KT 8SM SCT040 OVC065 M08/M11 A2996 RMK AO2 SLP153
                 T10781111 =
2017-12-16 04:54 METAR KIPT 160954Z AUTO 04003KT 7SM BKN040 OVC065 M09/M12 A2995 RMK AO2 SLP150
                 T10891122 =
2017-12-16 03:54 METAR KIPT 160854Z AUTO 00000KT 7SM FEW065 M10/M13 A2996 RMK AO2 SLP153 I1000
                 I3000 T11001133 51015 =
2017-12-16 02:54 METAR KIPT 160754Z AUTO 00000KT 7SM FEW050 M09/M12 A2995 RMK AO2 SLP152 I1000
                 T10941122 =
2017-12-16 02:17 METAR KIPT 160717Z AUTO 36003KT 7SM FEW003 BKN070 M09/M13 A2993 RMK AO2
                 T10941128 =
2017-12-16 01:54 METAR KIPT 160654Z AUTO 01004KT 7SM FEW060 M09/M12 A2993 RMK AO2 SLP143 I1000
                 T10941122 =
2017-12-16 00:54 METAR KIPT 160554Z AUTO 00000KT 6SM BR FEW003 M09/M12 A2991 RMK AO2 SLP138 I1000
                 I6000 T10941117 11050 21094 50006 =
2017-12-15 23:54 METAR KIPT 160454Z AUTO 00000KT 6SM BR BKN075 M08/M11 A2991 RMK AO2 SLP139 I1000
                 T10831106 410391111 =
2017-12-15 22:54 METAR KIPT 160354Z AUTO 00000KT 7SM CLR M08/M10 A2990 RMK AO2 SLP135 T10831100 =
2017-12-15 21:54 METAR KIPT 160254Z 00000KT 8SM BKN036 M06/M09 A2990 RMK AO2 SLP132 T10611094
                 53004 =

Support USWX by starting your Amazon purchase here.